createdAt,value
2019-02-17T00:02:01.782Z,3.99
2019-02-17T00:04:28.338Z,3.89
2019-02-17T00:06:54.895Z,3.86
2019-02-17T00:09:21.435Z,3.70
2019-02-17T00:11:48.049Z,3.54
2019-02-17T00:14:14.568Z,3.46
2019-02-17T00:16:41.134Z,3.57
2019-02-17T00:19:07.701Z,3.57
2019-02-17T00:21:34.257Z,3.48
2019-02-17T00:24:00.811Z,3.43
2019-02-17T00:26:27.637Z,3.33
2019-02-17T00:28:59.568Z,3.26
2019-02-17T00:31:22.663Z,3.19
2019-02-17T00:33:49.200Z,3.24
2019-02-17T00:36:15.768Z,3.30
2019-02-17T00:38:42.316Z,3.29
2019-02-17T00:41:08.885Z,3.30
2019-02-17T00:43:35.425Z,3.25
2019-02-17T00:46:01.980Z,3.32
2019-02-17T00:48:36.141Z,3.44
2019-02-17T00:51:05.146Z,3.28
2019-02-17T00:53:31.693Z,3.19
2019-02-17T00:55:58.245Z,3.10
2019-02-17T00:58:24.802Z,3.11
2019-02-17T01:00:51.388Z,3.05
2019-02-17T01:03:17.939Z,2.98
2019-02-17T01:05:44.480Z,3.00
2019-02-17T01:08:11.066Z,3.10
2019-02-17T01:10:37.619Z,3.10
2019-02-17T01:13:04.266Z,3.08
2019-02-17T01:15:30.812Z,2.99
2019-02-17T01:17:57.422Z,3.22
2019-02-17T01:20:23.971Z,3.30
2019-02-17T01:22:50.529Z,3.29
2019-02-17T01:25:17.463Z,3.16
2019-02-17T01:27:44.030Z,3.03
2019-02-17T01:30:12.339Z,2.93
2019-02-17T01:32:38.902Z,2.82
2019-02-17T01:35:05.444Z,2.74
2019-02-17T01:37:32.004Z,2.67
2019-02-17T01:39:58.575Z,2.58
2019-02-17T01:42:25.113Z,2.45
2019-02-17T01:44:51.672Z,2.50
2019-02-17T01:47:18.221Z,2.57
2019-02-17T01:49:44.773Z,2.53
2019-02-17T01:52:11.373Z,2.46
2019-02-17T01:54:37.908Z,2.39
2019-02-17T01:57:04.477Z,2.28
2019-02-17T01:59:31.110Z,2.34
2019-02-17T02:01:57.681Z,2.33
2019-02-17T02:04:24.249Z,2.35
2019-02-17T02:06:50.884Z,2.38
2019-02-17T02:09:17.450Z,2.40
2019-02-17T02:11:43.988Z,2.36
2019-02-17T02:14:10.551Z,2.23
2019-02-17T02:16:37.099Z,2.17
2019-02-17T02:19:03.681Z,2.07
2019-02-17T02:21:30.249Z,2.15
2019-02-17T02:23:56.820Z,2.01
2019-02-17T02:26:23.364Z,1.87
2019-02-17T02:28:49.949Z,1.76
2019-02-17T02:31:16.508Z,1.63
2019-02-17T02:33:43.071Z,1.73
2019-02-17T02:36:09.612Z,1.69
2019-02-17T02:38:36.194Z,1.68
2019-02-17T02:41:02.759Z,1.70
2019-02-17T02:43:29.436Z,1.93
2019-02-17T02:45:58.204Z,2.05
2019-02-17T02:48:24.764Z,2.02
2019-02-17T02:50:53.079Z,1.95
2019-02-17T02:53:19.765Z,1.90
2019-02-17T02:55:46.459Z,1.85
2019-02-17T02:58:13.037Z,1.77
2019-02-17T03:00:40.411Z,1.65
2019-02-17T03:03:06.966Z,1.55
2019-02-17T03:05:35.424Z,1.45
2019-02-17T03:08:01.992Z,1.50
2019-02-17T03:10:28.549Z,1.72
2019-02-17T03:12:55.125Z,1.77
2019-02-17T03:15:23.049Z,1.90
2019-02-17T03:17:50.967Z,1.80
2019-02-17T03:20:17.558Z,1.74
2019-02-17T03:22:44.250Z,1.66
2019-02-17T03:25:10.903Z,1.67
2019-02-17T03:27:37.440Z,1.87
2019-02-17T03:30:06.197Z,1.84
2019-02-17T03:32:32.985Z,1.78
2019-02-17T03:34:59.557Z,1.70
2019-02-17T03:37:26.112Z,1.61
2019-02-17T03:39:52.713Z,1.66
2019-02-17T03:42:19.241Z,1.70
2019-02-17T03:44:45.818Z,1.56
2019-02-17T03:47:12.368Z,1.46
2019-02-17T03:49:38.943Z,1.46
2019-02-17T03:52:05.522Z,1.87
2019-02-17T03:54:32.081Z,1.79
2019-02-17T03:56:58.623Z,1.69
2019-02-17T03:59:25.192Z,1.55
2019-02-17T04:01:51.731Z,1.50
2019-02-17T04:04:18.310Z,1.46
2019-02-17T04:06:44.954Z,1.40
2019-02-17T04:09:11.531Z,1.45
2019-02-17T04:11:38.081Z,1.45
2019-02-17T04:14:04.652Z,1.52
2019-02-17T04:16:31.212Z,1.39
2019-02-17T04:18:57.794Z,1.22
2019-02-17T04:21:24.349Z,1.13
2019-02-17T04:23:50.926Z,1.11
2019-02-17T04:26:17.471Z,1.04
2019-02-17T04:28:44.051Z,1.23
2019-02-17T04:31:10.641Z,1.15
2019-02-17T04:33:37.184Z,1.09
2019-02-17T04:36:03.780Z,1.20
2019-02-17T04:38:30.307Z,1.16
2019-02-17T04:40:56.868Z,1.24
2019-02-17T04:43:23.417Z,1.12
2019-02-17T04:45:49.991Z,1.03
2019-02-17T04:48:16.531Z,1.00
2019-02-17T04:50:43.103Z,1.56
2019-02-17T04:53:09.656Z,1.83
2019-02-17T04:55:36.230Z,2.13
2019-02-17T04:58:02.905Z,2.04
2019-02-17T05:00:39.497Z,1.97
2019-02-17T05:02:57.928Z,1.69
2019-02-17T05:05:24.521Z,1.47
2019-02-17T05:07:51.086Z,1.30
2019-02-17T05:10:17.649Z,1.18
2019-02-17T05:12:44.266Z,1.10
2019-02-17T05:15:10.844Z,1.00
2019-02-17T05:17:37.387Z,0.99
2019-02-17T05:20:04.195Z,1.10
2019-02-17T05:22:30.737Z,1.06
2019-02-17T05:24:57.308Z,1.10
2019-02-17T05:27:23.992Z,1.12
2019-02-17T05:29:50.530Z,0.98
2019-02-17T05:32:17.102Z,0.84
2019-02-17T05:34:43.647Z,0.77
2019-02-17T05:37:10.239Z,0.70
2019-02-17T05:39:36.785Z,0.74
2019-02-17T05:42:03.410Z,0.63
2019-02-17T05:44:29.989Z,0.54
2019-02-17T05:46:56.559Z,0.49
2019-02-17T05:49:23.106Z,0.53
2019-02-17T05:51:49.683Z,0.42
2019-02-17T05:54:16.227Z,0.57
2019-02-17T05:56:42.787Z,1.13
2019-02-17T05:59:09.343Z,0.96
2019-02-17T06:01:35.917Z,0.85
2019-02-17T06:04:02.511Z,0.77
2019-02-17T06:06:29.073Z,0.80
2019-02-17T06:08:55.636Z,0.68
2019-02-17T06:11:23.970Z,0.70
2019-02-17T06:13:50.517Z,0.80
2019-02-17T06:16:17.087Z,0.74
2019-02-17T06:18:43.644Z,0.67
2019-02-17T06:21:10.210Z,0.61
2019-02-17T06:23:36.775Z,0.55
2019-02-17T06:26:03.330Z,0.50
2019-02-17T06:28:29.891Z,0.47
2019-02-17T06:30:56.542Z,0.51
2019-02-17T06:33:23.147Z,0.67
2019-02-17T06:35:50.798Z,0.93
2019-02-17T06:38:17.379Z,0.92
2019-02-17T06:40:43.934Z,0.99
2019-02-17T06:43:10.505Z,1.19
2019-02-17T06:45:37.068Z,1.20
2019-02-17T06:48:03.650Z,1.47
2019-02-17T06:50:30.214Z,1.65
2019-02-17T06:52:56.780Z,2.03
2019-02-17T06:55:36.963Z,2.21
2019-02-17T06:58:03.526Z,2.38
2019-02-17T07:00:33.321Z,2.63
2019-02-17T07:02:59.896Z,3.13
2019-02-17T07:05:57.866Z,3.13
2019-02-17T07:08:24.449Z,3.30
2019-02-17T07:10:50.991Z,3.14
2019-02-17T07:13:17.569Z,2.96
2019-02-17T07:15:44.121Z,2.86
2019-02-17T07:18:10.721Z,3.17
2019-02-17T07:20:37.266Z,3.48
2019-02-17T07:23:03.832Z,3.90
2019-02-17T07:25:30.697Z,3.95
2019-02-17T07:27:57.351Z,4.34
2019-02-17T07:30:23.864Z,4.14
2019-02-17T07:32:50.441Z,3.94
2019-02-17T07:35:17.039Z,3.94
2019-02-17T07:37:43.586Z,4.12
2019-02-17T07:40:10.148Z,4.57
2019-02-17T07:42:36.726Z,4.77
2019-02-17T07:45:03.338Z,4.68
2019-02-17T07:47:29.907Z,4.72
2019-02-17T07:49:56.483Z,4.71
2019-02-17T07:52:23.033Z,4.56
2019-02-17T07:54:49.599Z,4.64
2019-02-17T07:57:16.138Z,4.64
2019-02-17T07:59:42.730Z,4.70
2019-02-17T08:02:09.279Z,5.05
2019-02-17T08:04:35.853Z,5.49
2019-02-17T08:07:02.407Z,5.49
2019-02-17T08:09:28.975Z,5.78
2019-02-17T08:11:55.522Z,6.50
2019-02-17T08:14:22.096Z,7.05
2019-02-17T08:16:48.640Z,7.13
2019-02-17T08:19:17.405Z,7.39
2019-02-17T08:21:43.945Z,7.17
2019-02-17T08:24:10.522Z,7.60
2019-02-17T08:26:37.311Z,7.74
2019-02-17T08:29:03.872Z,8.13
2019-02-17T08:31:30.421Z,8.42
2019-02-17T08:33:56.989Z,9.15
2019-02-17T08:36:23.577Z,10.05
2019-02-17T08:38:50.234Z,11.79
2019-02-17T08:41:16.788Z,13.04
2019-02-17T08:43:43.327Z,14.33
2019-02-17T08:46:09.918Z,15.40
2019-02-17T08:48:36.500Z,16.38
2019-02-17T08:51:03.070Z,17.04
2019-02-17T08:53:29.632Z,17.96
2019-02-17T08:55:56.177Z,17.00
2019-02-17T08:58:22.788Z,17.13
2019-02-17T09:00:49.303Z,17.47
2019-02-17T09:03:15.840Z,16.59
2019-02-17T09:05:44.371Z,16.03
2019-02-17T09:08:11.193Z,16.61
2019-02-17T09:10:37.790Z,17.65
2019-02-17T09:13:04.339Z,17.78
2019-02-17T09:15:30.920Z,18.93
2019-02-17T09:17:57.499Z,18.92
2019-02-17T09:20:24.474Z,19.40
2019-02-17T09:22:51.043Z,18.71
2019-02-17T09:25:17.621Z,19.23
2019-02-17T09:27:44.182Z,19.73
2019-02-17T09:30:12.689Z,19.49
2019-02-17T09:32:39.272Z,18.93
2019-02-17T09:35:06.153Z,19.97
2019-02-17T09:37:32.706Z,19.59
2019-02-17T09:39:59.268Z,19.48
2019-02-17T09:42:25.851Z,18.65
2019-02-17T09:44:52.439Z,18.53
2019-02-17T09:47:21.424Z,18.61
2019-02-17T09:49:48.008Z,17.98
2019-02-17T09:52:14.558Z,17.84
2019-02-17T09:54:41.156Z,17.47
2019-02-17T09:57:07.709Z,17.65
2019-02-17T09:59:34.268Z,18.58
2019-02-17T10:02:00.811Z,19.22
2019-02-17T10:04:27.361Z,18.01
2019-02-17T10:06:54.047Z,19.28
2019-02-17T10:09:20.603Z,18.82
2019-02-17T10:11:47.179Z,18.68
2019-02-17T10:14:13.740Z,19.89
2019-02-17T10:16:40.332Z,16.88
2019-02-17T10:19:06.942Z,17.97
2019-02-17T10:21:34.648Z,17.43
2019-02-17T10:24:01.234Z,15.17
2019-02-17T10:26:29.418Z,18.26
2019-02-17T10:28:55.979Z,20.63
2019-02-17T10:31:22.552Z,21.09
2019-02-17T10:33:49.086Z,20.33
2019-02-17T10:36:15.667Z,20.36
2019-02-17T10:38:42.548Z,21.50
2019-02-17T10:41:09.118Z,20.34
2019-02-17T10:43:35.653Z,20.30
2019-02-17T10:46:02.244Z,20.54
2019-02-17T10:48:28.807Z,19.78
2019-02-17T10:50:55.374Z,20.57
2019-02-17T10:53:21.937Z,19.75
2019-02-17T10:55:48.513Z,18.08
2019-02-17T10:58:15.058Z,19.18
2019-02-17T11:00:41.632Z,18.94
2019-02-17T11:03:08.767Z,18.16
2019-02-17T11:05:35.323Z,19.51
2019-02-17T11:08:01.895Z,16.79
2019-02-17T11:10:28.437Z,19.56
2019-02-17T11:12:54.998Z,20.12
2019-02-17T11:15:21.545Z,20.45
2019-02-17T11:17:48.111Z,21.36
2019-02-17T11:20:14.673Z,20.72
2019-02-17T11:22:41.239Z,22.41
2019-02-17T11:25:07.803Z,21.43
2019-02-17T11:27:34.382Z,21.40
2019-02-17T11:30:00.922Z,21.71
2019-02-17T11:32:27.489Z,22.38
2019-02-17T11:34:54.048Z,20.34
2019-02-17T11:37:20.613Z,20.92
2019-02-17T11:39:47.194Z,21.40
2019-02-17T11:42:13.736Z,21.51
2019-02-17T11:44:40.310Z,20.41
2019-02-17T11:47:07.506Z,20.08
2019-02-17T11:49:35.405Z,21.72
2019-02-17T11:52:01.973Z,20.46
2019-02-17T11:54:28.522Z,21.58
2019-02-17T11:56:55.098Z,21.57
2019-02-17T11:59:21.664Z,21.67
2019-02-17T12:01:48.242Z,21.68
2019-02-17T12:04:15.301Z,20.50
2019-02-17T12:06:41.870Z,19.58
2019-02-17T12:09:08.528Z,21.21
2019-02-17T12:11:35.435Z,22.31
2019-02-17T12:14:02.004Z,22.17
2019-02-17T12:16:36.774Z,22.86
2019-02-17T12:18:57.065Z,21.83
2019-02-17T12:21:58.308Z,20.78
2019-02-17T12:24:35.073Z,20.56
2019-02-17T12:27:27.097Z,20.40
2019-02-17T12:30:08.962Z,19.85
2019-02-17T12:32:35.529Z,20.86
2019-02-17T12:35:04.162Z,19.17
2019-02-17T12:37:30.700Z,19.60
2019-02-17T12:39:57.260Z,21.70
2019-02-17T12:42:23.824Z,21.43
2019-02-17T12:44:50.364Z,20.16
2019-02-17T12:47:19.259Z,21.34
2019-02-17T12:49:45.762Z,20.12
2019-02-17T12:52:12.332Z,20.43
2019-02-17T12:54:39.173Z,21.79
2019-02-17T12:57:05.734Z,21.01
2019-02-17T12:59:32.272Z,22.01
2019-02-17T13:01:58.811Z,22.23
2019-02-17T13:04:25.378Z,22.80
2019-02-17T13:06:51.926Z,23.55
2019-02-17T13:09:18.509Z,22.91
2019-02-17T13:11:45.048Z,21.33
2019-02-17T13:14:11.598Z,20.10
2019-02-17T13:16:38.671Z,21.70
2019-02-17T13:19:05.241Z,22.78
2019-02-17T13:21:31.798Z,22.17
2019-02-17T13:23:58.376Z,22.31
2019-02-17T13:26:24.919Z,21.37
2019-02-17T13:28:51.486Z,20.54
2019-02-17T13:31:18.020Z,21.12
2019-02-17T13:33:44.580Z,20.19
2019-02-17T13:36:11.130Z,20.58
2019-02-17T13:38:38.003Z,20.61
2019-02-17T13:41:04.529Z,20.08
2019-02-17T13:43:31.084Z,20.65
2019-02-17T13:45:59.927Z,20.58
2019-02-17T13:48:28.898Z,19.43
2019-02-17T13:50:55.460Z,19.19
2019-02-17T13:53:22.034Z,19.58
2019-02-17T13:55:48.573Z,19.62
2019-02-17T13:58:15.147Z,19.05
2019-02-17T14:00:41.708Z,19.14
2019-02-17T14:03:08.291Z,19.78
2019-02-17T14:05:34.815Z,19.77
2019-02-17T14:08:01.361Z,20.17
2019-02-17T14:10:27.928Z,20.25
2019-02-17T14:12:54.606Z,19.95
2019-02-17T14:15:21.129Z,19.81
2019-02-17T14:17:47.976Z,19.69
2019-02-17T14:20:14.634Z,18.71
2019-02-17T14:22:41.577Z,19.13
2019-02-17T14:25:08.158Z,19.25
2019-02-17T14:27:34.716Z,18.97
2019-02-17T14:30:01.291Z,18.57
2019-02-17T14:32:27.866Z,18.08
2019-02-17T14:34:54.432Z,18.54
2019-02-17T14:37:20.974Z,18.80
2019-02-17T14:39:47.540Z,18.80
2019-02-17T14:42:14.107Z,18.97
2019-02-17T14:44:40.686Z,18.80
2019-02-17T14:47:07.550Z,18.87
2019-02-17T14:49:34.123Z,18.85
2019-02-17T14:52:00.669Z,18.87
2019-02-17T14:54:27.237Z,19.22
2019-02-17T14:56:53.786Z,19.18
2019-02-17T14:59:20.374Z,19.10
2019-02-17T15:01:47.018Z,19.09
2019-02-17T15:04:13.602Z,18.84
2019-02-17T15:06:40.186Z,18.80
2019-02-17T15:09:06.772Z,18.82
2019-02-17T15:11:33.324Z,18.90
2019-02-17T15:13:59.889Z,18.59
2019-02-17T15:16:26.519Z,18.34
2019-02-17T15:18:53.094Z,18.16
2019-02-17T15:21:20.002Z,18.17
2019-02-17T15:23:46.580Z,17.60
2019-02-17T15:26:13.978Z,17.17
2019-02-17T15:28:40.516Z,17.06
2019-02-17T15:31:07.086Z,16.67
2019-02-17T15:33:33.624Z,16.79
2019-02-17T15:36:00.166Z,16.93
2019-02-17T15:38:26.724Z,16.26
2019-02-17T15:40:53.319Z,16.26
2019-02-17T15:43:19.859Z,16.00
2019-02-17T15:45:46.422Z,16.13
2019-02-17T15:48:12.962Z,16.01
2019-02-17T15:50:39.512Z,15.99
2019-02-17T15:53:06.037Z,15.75
2019-02-17T15:55:32.615Z,15.36
2019-02-17T15:57:59.183Z,15.37
2019-02-17T16:00:25.760Z,15.28
2019-02-17T16:02:52.303Z,15.21
2019-02-17T16:05:18.889Z,15.06
2019-02-17T16:07:45.435Z,14.92
2019-02-17T16:10:12.065Z,14.78
2019-02-17T16:12:38.594Z,14.68
2019-02-17T16:15:07.808Z,14.54
2019-02-17T16:17:34.688Z,14.52
2019-02-17T16:20:03.757Z,14.34
2019-02-17T16:22:30.335Z,14.25
2019-02-17T16:24:56.884Z,14.16
2019-02-17T16:27:23.438Z,14.06
2019-02-17T16:29:50.033Z,13.94
2019-02-17T16:32:16.586Z,13.85
2019-02-17T16:34:43.160Z,13.65
2019-02-17T16:37:09.720Z,13.45
2019-02-17T16:39:36.287Z,13.23
2019-02-17T16:42:02.877Z,13.16
2019-02-17T16:44:29.421Z,13.02
2019-02-17T16:46:55.996Z,13.10
2019-02-17T16:49:22.709Z,13.10
2019-02-17T16:51:49.254Z,13.00
2019-02-17T16:54:15.801Z,12.96
2019-02-17T16:56:42.378Z,12.95
2019-02-17T16:59:08.953Z,12.73
2019-02-17T17:01:35.505Z,12.46
2019-02-17T17:04:02.071Z,12.24
2019-02-17T17:06:28.653Z,12.19
2019-02-17T17:08:55.203Z,12.03
2019-02-17T17:11:21.774Z,11.90
2019-02-17T17:13:48.323Z,11.94
2019-02-17T17:16:14.889Z,11.87
2019-02-17T17:18:41.471Z,11.66
2019-02-17T17:21:08.129Z,11.53
2019-02-17T17:23:34.665Z,11.48
2019-02-17T17:26:01.254Z,11.34
2019-02-17T17:28:27.787Z,11.23
2019-02-17T17:30:54.376Z,11.11
2019-02-17T17:33:20.941Z,11.37
2019-02-17T17:35:47.541Z,11.30
2019-02-17T17:38:14.080Z,11.36
2019-02-17T17:40:40.696Z,11.19
2019-02-17T17:43:07.191Z,11.00
2019-02-17T17:45:34.362Z,10.86
2019-02-17T17:48:00.931Z,10.75
2019-02-17T17:50:27.477Z,10.93
2019-02-17T17:52:54.039Z,10.95
2019-02-17T17:55:20.608Z,10.90
2019-02-17T17:57:47.158Z,11.10
2019-02-17T18:00:16.148Z,11.29
2019-02-17T18:02:42.716Z,11.45
2019-02-17T18:05:09.787Z,11.64
2019-02-17T18:07:36.362Z,11.70
2019-02-17T18:10:03.236Z,11.65
2019-02-17T18:12:29.802Z,11.82
2019-02-17T18:14:56.352Z,11.75
2019-02-17T18:17:22.915Z,11.62
2019-02-17T18:19:49.497Z,11.71
2019-02-17T18:22:16.049Z,11.56
2019-02-17T18:24:42.693Z,11.43
2019-02-17T18:27:09.254Z,11.31
2019-02-17T18:29:36.045Z,11.30
2019-02-17T18:32:02.623Z,11.31
2019-02-17T18:34:29.171Z,11.31
2019-02-17T18:36:55.730Z,11.12
2019-02-17T18:39:22.648Z,11.21
2019-02-17T18:41:49.235Z,11.34
2019-02-17T18:44:15.777Z,11.42
2019-02-17T18:46:42.347Z,11.35
2019-02-17T18:49:08.896Z,11.37
2019-02-17T18:51:35.501Z,11.35
2019-02-17T18:54:02.079Z,11.29
2019-02-17T18:56:28.642Z,11.50
2019-02-17T18:58:55.224Z,11.45
2019-02-17T19:01:21.762Z,11.39
2019-02-17T19:03:48.323Z,11.28
2019-02-17T19:06:15.938Z,11.19
2019-02-17T19:08:42.476Z,11.16
2019-02-17T19:11:09.053Z,11.27
2019-02-17T19:13:35.591Z,11.33
2019-02-17T19:16:02.149Z,11.33
2019-02-17T19:18:28.746Z,11.34
2019-02-17T19:20:55.311Z,11.30
2019-02-17T19:23:21.846Z,11.32
2019-02-17T19:25:48.430Z,11.29
2019-02-17T19:28:14.981Z,11.30
2019-02-17T19:30:41.575Z,11.25
2019-02-17T19:33:08.143Z,11.21
2019-02-17T19:35:41.463Z,11.25
2019-02-17T19:38:03.127Z,11.19
2019-02-17T19:40:29.664Z,11.15
2019-02-17T19:42:56.250Z,10.85
2019-02-17T19:45:22.803Z,10.79
2019-02-17T19:47:49.362Z,10.79
2019-02-17T19:50:15.929Z,10.89
2019-02-17T19:52:42.528Z,10.78
2019-02-17T19:55:09.131Z,10.37
2019-02-17T19:57:35.691Z,10.39
2019-02-17T20:00:02.268Z,10.17
2019-02-17T20:02:53.735Z,10.44
2019-02-17T20:05:24.498Z,10.47
2019-02-17T20:07:52.793Z,10.47
2019-02-17T20:10:19.116Z,10.51
2019-02-17T20:12:45.698Z,10.64
2019-02-17T20:15:12.224Z,10.60
2019-02-17T20:17:38.864Z,10.71
2019-02-17T20:20:05.418Z,10.72
2019-02-17T20:22:31.949Z,10.39
2019-02-17T20:24:58.531Z,10.12
2019-02-17T20:27:25.058Z,9.84
2019-02-17T20:29:51.630Z,9.52
2019-02-17T20:32:18.170Z,9.45
2019-02-17T20:34:44.719Z,9.39
2019-02-17T20:37:11.258Z,9.27
2019-02-17T20:39:37.813Z,8.96
2019-02-17T20:42:04.373Z,8.79
2019-02-17T20:44:30.932Z,8.56
2019-02-17T20:46:57.480Z,8.42
2019-02-17T20:49:24.052Z,8.32
2019-02-17T20:51:50.592Z,8.32
2019-02-17T20:54:17.161Z,8.47
2019-02-17T20:56:43.727Z,8.35
2019-02-17T20:59:10.279Z,8.25
2019-02-17T21:01:36.819Z,8.26
2019-02-17T21:04:03.393Z,8.37
2019-02-17T21:06:29.925Z,8.20
2019-02-17T21:08:56.642Z,8.19
2019-02-17T21:11:23.185Z,7.99
2019-02-17T21:13:49.745Z,7.85
2019-02-17T21:16:16.284Z,7.78
2019-02-17T21:18:42.853Z,7.86
2019-02-17T21:21:09.397Z,7.80
2019-02-17T21:23:35.965Z,7.66
2019-02-17T21:26:02.497Z,7.64
2019-02-17T21:28:29.095Z,7.59
2019-02-17T21:30:55.629Z,7.59
2019-02-17T21:33:22.188Z,7.92
2019-02-17T21:35:48.753Z,7.89
2019-02-17T21:38:15.323Z,7.77
2019-02-17T21:40:41.867Z,7.64
2019-02-17T21:43:08.399Z,7.78
2019-02-17T21:45:34.959Z,7.86
2019-02-17T21:48:01.500Z,7.70
2019-02-17T21:50:28.053Z,7.68
2019-02-17T21:52:54.585Z,7.64
2019-02-17T21:55:21.134Z,7.43
2019-02-17T21:57:47.671Z,7.38
2019-02-17T22:00:16.093Z,7.45
2019-02-17T22:02:42.656Z,7.67
2019-02-17T22:05:11.278Z,7.55
2019-02-17T22:07:37.816Z,7.60
2019-02-17T22:10:05.098Z,7.40
2019-02-17T22:12:31.640Z,7.18
2019-02-17T22:14:58.219Z,7.07
2019-02-17T22:17:24.767Z,6.97
2019-02-17T22:19:51.329Z,6.90
2019-02-17T22:22:18.097Z,6.91
2019-02-17T22:24:44.663Z,6.78
2019-02-17T22:27:11.193Z,6.81
2019-02-17T22:29:37.755Z,6.71
2019-02-17T22:32:04.297Z,6.60
2019-02-17T22:34:30.865Z,6.49
2019-02-17T22:36:57.500Z,6.32
2019-02-17T22:39:24.070Z,6.40
2019-02-17T22:41:50.612Z,6.35
2019-02-17T22:44:17.174Z,6.29
2019-02-17T22:46:43.744Z,6.41
2019-02-17T22:49:10.306Z,6.32
2019-02-17T22:51:36.856Z,6.31
2019-02-17T22:54:03.410Z,6.41
2019-02-17T22:56:29.963Z,6.46
2019-02-17T22:58:56.529Z,6.37
2019-02-17T23:01:25.457Z,6.26
2019-02-17T23:03:52.006Z,6.34
2019-02-17T23:06:18.582Z,6.57
2019-02-17T23:08:45.138Z,6.32
2019-02-17T23:11:11.704Z,6.18
2019-02-17T23:13:38.250Z,6.18
2019-02-17T23:16:04.815Z,6.52
2019-02-17T23:18:31.360Z,6.38
2019-02-17T23:20:57.948Z,6.15
2019-02-17T23:23:24.495Z,6.10
2019-02-17T23:25:51.042Z,6.02
2019-02-17T23:28:17.630Z,6.14
2019-02-17T23:30:44.198Z,6.24
2019-02-17T23:33:10.754Z,6.11
2019-02-17T23:35:37.339Z,6.15
2019-02-17T23:38:03.884Z,6.15
2019-02-17T23:40:30.456Z,5.99
2019-02-17T23:42:59.059Z,5.90
2019-02-17T23:45:25.631Z,5.94
2019-02-17T23:47:52.172Z,5.94
2019-02-17T23:50:18.737Z,6.06
2019-02-17T23:52:45.286Z,6.06
2019-02-17T23:55:11.858Z,6.02
2019-02-17T23:57:38.410Z,5.91
